sensor_id;sensor_type;location;lat;lon;timestamp;pressure;altitude;pressure_sealevel;temperature;humidity
46724;BME280;32463;48.298;11.620;2022-12-24T10:22:20;96320.97;;;10.00;100.00
46724;BME280;32463;48.298;11.620;2022-12-24T10:27:37;96334.00;;;10.17;100.00
46724;BME280;32463;48.298;11.620;2022-12-24T10:30:20;96333.03;;;10.18;100.00
46724;BME280;32463;48.298;11.620;2022-12-24T10:32:49;96325.75;;;10.71;100.00
46724;BME280;32463;48.298;11.620;2022-12-24T10:37:47;96334.56;;;11.11;100.00
46724;BME280;32463;48.298;11.620;2022-12-24T10:40:35;96325.63;;;11.46;100.00
46724;BME280;32463;48.298;11.620;2022-12-24T10:43:21;96317.78;;;11.70;100.00
46724;BME280;32463;48.298;11.620;2022-12-24T10:45:56;96330.00;;;11.45;100.00
46724;BME280;32463;48.298;11.620;2022-12-24T10:48:28;96338.06;;;11.75;100.00
46724;BME280;32463;48.298;11.620;2022-12-24T10:53:36;96330.75;;;12.34;98.93
46724;BME280;32463;48.298;11.620;2022-12-24T10:56:05;96335.16;;;11.62;100.00
46724;BME280;32463;48.298;11.620;2022-12-24T10:58:33;96329.16;;;12.25;98.94
46724;BME280;32463;48.298;11.620;2022-12-24T11:00:59;96328.63;;;12.68;95.61
46724;BME280;32463;48.298;11.620;2022-12-24T11:03:33;96330.28;;;12.61;90.92
46724;BME280;32463;48.298;11.620;2022-12-24T11:08:28;96332.56;;;12.25;89.87
46724;BME280;32463;48.298;11.620;2022-12-24T11:10:59;96344.00;;;12.16;91.76
46724;BME280;32463;48.298;11.620;2022-12-24T11:13:30;96341.91;;;12.11;93.26
46724;BME280;32463;48.298;11.620;2022-12-24T11:16:01;96333.00;;;12.45;89.20
46724;BME280;32463;48.298;11.620;2022-12-24T11:18:30;96331.53;;;12.96;85.13
46724;BME280;32463;48.298;11.620;2022-12-24T11:20:58;96326.28;;;12.81;82.39
46724;BME280;32463;48.298;11.620;2022-12-24T11:23:26;96322.28;;;12.40;87.04
46724;BME280;32463;48.298;11.620;2022-12-24T11:25:54;96325.66;;;12.09;87.30
46724;BME280;32463;48.298;11.620;2022-12-24T11:28:26;96307.81;;;12.45;89.40
46724;BME280;32463;48.298;11.620;2022-12-24T11:31:04;96324.38;;;12.44;83.65
46724;BME280;32463;48.298;11.620;2022-12-24T11:33:45;96323.97;;;12.25;85.87
46724;BME280;32463;48.298;11.620;2022-12-24T11:36:12;96323.66;;;11.80;90.97
46724;BME280;32463;48.298;11.620;2022-12-24T11:38:38;96327.28;;;11.23;96.93
46724;BME280;32463;48.298;11.620;2022-12-24T11:41:08;96328.41;;;11.12;100.00
46724;BME280;32463;48.298;11.620;2022-12-24T11:43:46;96320.59;;;11.61;98.57
46724;BME280;32463;48.298;11.620;2022-12-24T11:46:19;96315.50;;;12.31;89.27
46724;BME280;32463;48.298;11.620;2022-12-24T11:48:47;96308.59;;;11.52;94.60
46724;BME280;32463;48.298;11.620;2022-12-24T11:51:24;96320.56;;;11.85;92.93
46724;BME280;32463;48.298;11.620;2022-12-24T11:54:04;96312.84;;;11.28;98.41
46724;BME280;32463;48.298;11.620;2022-12-24T11:56:46;96318.97;;;11.03;100.00
46724;BME280;32463;48.298;11.620;2022-12-24T11:59:18;96316.06;;;11.14;100.00
46724;BME280;32463;48.298;11.620;2022-12-24T12:01:48;96303.59;;;11.18;100.00
46724;BME280;32463;48.298;11.620;2022-12-24T12:04:19;96294.97;;;11.33;99.54
46724;BME280;32463;48.298;11.620;2022-12-24T12:06:50;96294.31;;;11.56;97.19
46724;BME280;32463;48.298;11.620;2022-12-24T12:09:32;96298.81;;;11.62;94.02
46724;BME280;32463;48.298;11.620;2022-12-24T12:12:06;96307.28;;;11.47;100.00
46724;BME280;32463;48.298;11.620;2022-12-24T12:14:43;96310.41;;;10.94;100.00
46724;BME280;32463;48.298;11.620;2022-12-24T12:17:31;96311.19;;;10.78;100.00
46724;BME280;32463;48.298;11.620;2022-12-24T12:20:09;96320.50;;;10.47;100.00
46724;BME280;32463;48.298;11.620;2022-12-24T12:22:52;96321.25;;;10.23;100.00
46724;BME280;32463;48.298;11.620;2022-12-24T12:25:33;96335.56;;;10.09;100.00
46724;BME280;32463;48.298;11.620;2022-12-24T12:28:02;96324.19;;;9.94;100.00
46724;BME280;32463;48.298;11.620;2022-12-24T12:30:34;96318.59;;;9.81;100.00
46724;BME280;32463;48.298;11.620;2022-12-24T12:35:38;96330.94;;;9.87;100.00
46724;BME280;32463;48.298;11.620;2022-12-24T12:38:26;96332.84;;;10.53;100.00
46724;BME280;32463;48.298;11.620;2022-12-24T12:46:57;96328.84;;;12.28;90.59
46724;BME280;32463;48.298;11.620;2022-12-24T12:49:38;96348.63;;;11.90;92.46
46724;BME280;32463;48.298;11.620;2022-12-24T12:57:23;96349.47;;;12.60;87.23
46724;BME280;32463;48.298;11.620;2022-12-24T13:00:03;96350.53;;;13.05;84.88
46724;BME280;32463;48.298;11.620;2022-12-24T13:10:56;96339.81;;;12.46;86.56
46724;BME280;32463;48.298;11.620;2022-12-24T13:13:44;96339.75;;;11.52;93.42
46724;BME280;32463;48.298;11.620;2022-12-24T13:19:14;96351.47;;;10.49;100.00
46724;BME280;32463;48.298;11.620;2022-12-24T13:21:45;96359.00;;;10.26;100.00
46724;BME280;32463;48.298;11.620;2022-12-24T13:24:18;96356.00;;;10.12;100.00
46724;BME280;32463;48.298;11.620;2022-12-24T13:27:33;96360.97;;;10.32;100.00
46724;BME280;32463;48.298;11.620;2022-12-24T13:30:02;96364.09;;;10.18;100.00
46724;BME280;32463;48.298;11.620;2022-12-24T13:32:52;96357.78;;;10.46;100.00
46724;BME280;32463;48.298;11.620;2022-12-24T13:37:46;96380.31;;;10.54;100.00
46724;BME280;32463;48.298;11.620;2022-12-24T13:40:16;96386.00;;;10.57;100.00
46724;BME280;32463;48.298;11.620;2022-12-24T13:50:36;96386.19;;;9.96;100.00
46724;BME280;32463;48.298;11.620;2022-12-24T13:53:06;96386.25;;;9.78;100.00
46724;BME280;32463;48.298;11.620;2022-12-24T13:58:26;96395.44;;;9.55;100.00
46724;BME280;32463;48.298;11.620;2022-12-24T14:00:56;96399.38;;;9.59;100.00
46724;BME280;32463;48.298;11.620;2022-12-24T14:03:34;96390.34;;;9.63;100.00
46724;BME280;32463;48.298;11.620;2022-12-24T14:06:06;96397.81;;;9.66;100.00
46724;BME280;32463;48.298;11.620;2022-12-24T14:08:40;96394.31;;;9.75;100.00
46724;BME280;32463;48.298;11.620;2022-12-24T14:11:16;96390.13;;;9.82;100.00
46724;BME280;32463;48.298;11.620;2022-12-24T14:16:17;96390.34;;;9.63;100.00
46724;BME280;32463;48.298;11.620;2022-12-24T14:18:56;96396.41;;;9.54;100.00
46724;BME280;32463;48.298;11.620;2022-12-24T14:21:27;96398.63;;;9.49;100.00
46724;BME280;32463;48.298;11.620;2022-12-24T14:23:57;96388.63;;;9.45;100.00
46724;BME280;32463;48.298;11.620;2022-12-24T14:26:31;96393.34;;;9.32;100.00
46724;BME280;32463;48.298;11.620;2022-12-24T14:29:13;96393.28;;;9.24;100.00
46724;BME280;32463;48.298;11.620;2022-12-24T14:31:51;96391.28;;;9.18;100.00
46724;BME280;32463;48.298;11.620;2022-12-24T14:34:18;96398.97;;;9.10;100.00
46724;BME280;32463;48.298;11.620;2022-12-24T14:36:46;96401.47;;;9.02;100.00
46724;BME280;32463;48.298;11.620;2022-12-24T14:39:24;96390.25;;;8.93;100.00
46724;BME280;32463;48.298;11.620;2022-12-24T14:42:16;96396.97;;;8.86;100.00
46724;BME280;32463;48.298;11.620;2022-12-24T14:45:07;96400.28;;;8.78;100.00
46724;BME280;32463;48.298;11.620;2022-12-24T14:47:46;96407.28;;;8.68;100.00
46724;BME280;32463;48.298;11.620;2022-12-24T14:55:42;96415.13;;;8.49;100.00
46724;BME280;32463;48.298;11.620;2022-12-24T14:58:32;96423.84;;;8.48;100.00
46724;BME280;32463;48.298;11.620;2022-12-24T15:01:01;96429.56;;;8.42;100.00
46724;BME280;32463;48.298;11.620;2022-12-24T15:03:31;96429.19;;;8.37;100.00
46724;BME280;32463;48.298;11.620;2022-12-24T15:06:05;96427.13;;;8.31;100.00
46724;BME280;32463;48.298;11.620;2022-12-24T15:08:46;96430.00;;;8.28;100.00
46724;BME280;32463;48.298;11.620;2022-12-24T15:11:20;96439.00;;;8.24;100.00
46724;BME280;32463;48.298;11.620;2022-12-24T15:13:52;96434.25;;;8.19;100.00
46724;BME280;32463;48.298;11.620;2022-12-24T15:16:24;96435.63;;;8.14;100.00
46724;BME280;32463;48.298;11.620;2022-12-24T15:18:54;96428.31;;;7.99;100.00
46724;BME280;32463;48.298;11.620;2022-12-24T15:21:30;96432.00;;;7.97;100.00
46724;BME280;32463;48.298;11.620;2022-12-24T15:23:57;96419.41;;;7.94;100.00
46724;BME280;32463;48.298;11.620;2022-12-24T15:26:25;96424.78;;;8.00;100.00
46724;BME280;32463;48.298;11.620;2022-12-24T15:28:54;96420.97;;;8.04;100.00
46724;BME280;32463;48.298;11.620;2022-12-24T15:31:23;96427.50;;;8.08;100.00
46724;BME280;32463;48.298;11.620;2022-12-24T15:33:53;96426.69;;;8.08;100.00
46724;BME280;32463;48.298;11.620;2022-12-24T15:36:32;96423.97;;;8.09;100.00
46724;BME280;32463;48.298;11.620;2022-12-24T15:39:07;96433.72;;;8.16;100.00
46724;BME280;32463;48.298;11.620;2022-12-24T15:41:43;96425.88;;;8.07;100.00
46724;BME280;32463;48.298;11.620;2022-12-24T15:44:25;96427.50;;;8.08;100.00
46724;BME280;32463;48.298;11.620;2022-12-24T15:46:59;96424.53;;;8.03;100.00
46724;BME280;32463;48.298;11.620;2022-12-24T15:49:31;96426.97;;;7.95;100.00
46724;BME280;32463;48.298;11.620;2022-12-24T15:52:07;96426.34;;;7.93;100.00
46724;BME280;32463;48.298;11.620;2022-12-24T15:54:35;96425.66;;;7.91;100.00
46724;BME280;32463;48.298;11.620;2022-12-24T15:57:22;96437.88;;;7.89;100.00
46724;BME280;32463;48.298;11.620;2022-12-24T15:59:53;96436.78;;;7.92;100.00
46724;BME280;32463;48.298;11.620;2022-12-24T16:02:31;96446.16;;;7.93;100.00
46724;BME280;32463;48.298;11.620;2022-12-24T16:10:43;96436.94;;;7.90;100.00
46724;BME280;32463;48.298;11.620;2022-12-24T16:13:20;96432.13;;;7.95;100.00
46724;BME280;32463;48.298;11.620;2022-12-24T16:15:54;96436.75;;;8.01;100.00
46724;BME280;32463;48.298;11.620;2022-12-24T16:18:27;96434.84;;;8.03;100.00
46724;BME280;32463;48.298;11.620;2022-12-24T16:20:57;96439.75;;;7.97;100.00
46724;BME280;32463;48.298;11.620;2022-12-24T16:23:28;96432.44;;;7.92;100.00
46724;BME280;32463;48.298;11.620;2022-12-24T16:25:57;96444.09;;;7.96;100.00
46724;BME280;32463;48.298;11.620;2022-12-24T16:28:25;96442.78;;;7.92;100.00
46724;BME280;32463;48.298;11.620;2022-12-24T16:30:51;96444.56;;;7.82;100.00
46724;BME280;32463;48.298;11.620;2022-12-24T16:33:20;96444.97;;;7.77;100.00
46724;BME280;32463;48.298;11.620;2022-12-24T16:35:48;96444.41;;;7.74;100.00
46724;BME280;32463;48.298;11.620;2022-12-24T16:38:15;96454.75;;;7.74;100.00
46724;BME280;32463;48.298;11.620;2022-12-24T16:40:42;96458.13;;;7.74;100.00
46724;BME280;32463;48.298;11.620;2022-12-24T16:43:09;96458.00;;;7.66;100.00
46724;BME280;32463;48.298;11.620;2022-12-24T16:45:59;96459.13;;;7.64;100.00
46724;BME280;32463;48.298;11.620;2022-12-24T16:48:26;96466.19;;;7.62;100.00
46724;BME280;32463;48.298;11.620;2022-12-24T16:50:52;96474.88;;;7.61;100.00
46724;BME280;32463;48.298;11.620;2022-12-24T16:53:20;96476.50;;;7.62;100.00
46724;BME280;32463;48.298;11.620;2022-12-24T16:55:47;96483.28;;;7.63;100.00
46724;BME280;32463;48.298;11.620;2022-12-24T16:58:16;96480.72;;;7.63;100.00
46724;BME280;32463;48.298;11.620;2022-12-24T17:00:43;96478.13;;;7.63;100.00
46724;BME280;32463;48.298;11.620;2022-12-24T17:03:11;96485.19;;;7.61;100.00
46724;BME280;32463;48.298;11.620;2022-12-24T17:05:41;96487.34;;;7.65;100.00
46724;BME280;32463;48.298;11.620;2022-12-24T17:08:08;96483.00;;;7.85;100.00
46724;BME280;32463;48.298;11.620;2022-12-24T17:10:35;96484.63;;;7.67;100.00
46724;BME280;32463;48.298;11.620;2022-12-24T17:13:05;96491.97;;;7.62;100.00
46724;BME280;32463;48.298;11.620;2022-12-24T17:15:32;96497.13;;;7.62;100.00
46724;BME280;32463;48.298;11.620;2022-12-24T17:17:58;96496.03;;;7.55;100.00
46724;BME280;32463;48.298;11.620;2022-12-24T17:20:25;96493.34;;;7.56;100.00
46724;BME280;32463;48.298;11.620;2022-12-24T17:22:51;96489.13;;;7.55;100.00
46724;BME280;32463;48.298;11.620;2022-12-24T17:25:18;96480.84;;;7.52;100.00
46724;BME280;32463;48.298;11.620;2022-12-24T17:27:45;96479.88;;;7.53;100.00
46724;BME280;32463;48.298;11.620;2022-12-24T17:30:12;96474.47;;;7.56;100.00
46724;BME280;32463;48.298;11.620;2022-12-24T17:32:38;96485.47;;;7.58;100.00
46724;BME280;32463;48.298;11.620;2022-12-24T17:35:05;96484.09;;;7.54;100.00
46724;BME280;32463;48.298;11.620;2022-12-24T17:37:32;96474.59;;;7.44;100.00
46724;BME280;32463;48.298;11.620;2022-12-24T17:39:59;96484.63;;;7.48;100.00
46724;BME280;32463;48.298;11.620;2022-12-24T17:42:25;96495.22;;;7.44;100.00
46724;BME280;32463;48.298;11.620;2022-12-24T17:44:51;96495.50;;;7.41;100.00
46724;BME280;32463;48.298;11.620;2022-12-24T17:47:18;96490.59;;;7.38;100.00
46724;BME280;32463;48.298;11.620;2022-12-24T17:49:45;96502.28;;;7.42;100.00
46724;BME280;32463;48.298;11.620;2022-12-24T17:52:11;96485.97;;;7.42;100.00
46724;BME280;32463;48.298;11.620;2022-12-24T17:54:37;96477.69;;;7.38;100.00
46724;BME280;32463;48.298;11.620;2022-12-24T17:57:04;96480.84;;;7.32;100.00
46724;BME280;32463;48.298;11.620;2022-12-24T17:59:30;96483.00;;;7.27;100.00
46724;BME280;32463;48.298;11.620;2022-12-24T18:01:57;96487.91;;;7.30;100.00
46724;BME280;32463;48.298;11.620;2022-12-24T18:04:23;96486.25;;;7.29;100.00
46724;BME280;32463;48.298;11.620;2022-12-24T18:06:50;96489.78;;;7.28;100.00
46724;BME280;32463;48.298;11.620;2022-12-24T18:09:17;96491.69;;;7.26;100.00
46724;BME280;32463;48.298;11.620;2022-12-24T18:11:43;96502.94;;;7.25;100.00
46724;BME280;32463;48.298;11.620;2022-12-24T18:14:10;96494.78;;;7.20;100.00
46724;BME280;32463;48.298;11.620;2022-12-24T18:16:39;96507.69;;;7.20;100.00
46724;BME280;32463;48.298;11.620;2022-12-24T18:19:07;96501.16;;;7.16;100.00
46724;BME280;32463;48.298;11.620;2022-12-24T18:21:34;96504.97;;;7.22;100.00
46724;BME280;32463;48.298;11.620;2022-12-24T18:24:01;96499.53;;;7.15;100.00
46724;BME280;32463;48.298;11.620;2022-12-24T18:26:29;96514.88;;;7.17;100.00
46724;BME280;32463;48.298;11.620;2022-12-24T18:28:58;96510.09;;;7.12;100.00
46724;BME280;32463;48.298;11.620;2022-12-24T18:31:26;96507.38;;;7.04;100.00
46724;BME280;32463;48.298;11.620;2022-12-24T18:33:53;96510.94;;;7.03;100.00
46724;BME280;32463;48.298;11.620;2022-12-24T18:36:21;96507.66;;;7.01;100.00
46724;BME280;32463;48.298;11.620;2022-12-24T18:38:47;96511.19;;;7.00;100.00
46724;BME280;32463;48.298;11.620;2022-12-24T18:41:23;96514.72;;;6.99;100.00
46724;BME280;32463;48.298;11.620;2022-12-24T18:43:50;96509.28;;;7.02;100.00
46724;BME280;32463;48.298;11.620;2022-12-24T18:46:22;96509.81;;;6.96;100.00
46724;BME280;32463;48.298;11.620;2022-12-24T18:48:49;96509.81;;;6.96;100.00
46724;BME280;32463;48.298;11.620;2022-12-24T18:51:19;96512.53;;;6.94;100.00
46724;BME280;32463;48.298;11.620;2022-12-24T18:53:47;96512.78;;;6.91;100.00
46724;BME280;32463;48.298;11.620;2022-12-24T18:56:16;96514.53;;;6.91;100.00
46724;BME280;32463;48.298;11.620;2022-12-24T18:58:43;96521.59;;;6.89;100.00
46724;BME280;32463;48.298;11.620;2022-12-24T19:01:18;96517.63;;;6.85;100.00
46724;BME280;32463;48.298;11.620;2022-12-24T19:03:46;96524.69;;;6.83;100.00
46724;BME280;32463;48.298;11.620;2022-12-24T19:06:14;96523.31;;;6.79;100.00
46724;BME280;32463;48.298;11.620;2022-12-24T19:08:40;96517.72;;;6.73;100.00
46724;BME280;32463;48.298;11.620;2022-12-24T19:11:07;96523.84;;;6.72;100.00
46724;BME280;32463;48.298;11.620;2022-12-24T19:13:34;96524.13;;;6.69;100.00
46724;BME280;32463;48.298;11.620;2022-12-24T19:16:03;96524.63;;;6.63;100.00
46724;BME280;32463;48.298;11.620;2022-12-24T19:18:30;96519.97;;;6.57;100.00
46724;BME280;32463;48.298;11.620;2022-12-24T19:21:06;96533.81;;;6.56;100.00
46724;BME280;32463;48.298;11.620;2022-12-24T19:23:33;96535.69;;;6.54;100.00
46724;BME280;32463;48.298;11.620;2022-12-24T19:25:59;96538.25;;;6.54;100.00
46724;BME280;32463;48.298;11.620;2022-12-24T19:28:28;96551.16;;;6.54;100.00
46724;BME280;32463;48.298;11.620;2022-12-24T19:31:02;96541.09;;;6.51;100.00
46724;BME280;32463;48.298;11.620;2022-12-24T19:33:30;96534.81;;;6.44;100.00
46724;BME280;32463;48.298;11.620;2022-12-24T19:35:56;96536.44;;;6.45;100.00
46724;BME280;32463;48.298;11.620;2022-12-24T19:38:23;96549.50;;;6.53;100.00
46724;BME280;32463;48.298;11.620;2022-12-24T19:40:49;96550.91;;;6.57;100.00
46724;BME280;32463;48.298;11.620;2022-12-24T19:43:18;96538.97;;;6.56;100.00
46724;BME280;32463;48.298;11.620;2022-12-24T19:45:44;96528.66;;;6.56;100.00
46724;BME280;32463;48.298;11.620;2022-12-24T19:48:10;96530.53;;;6.54;100.00
46724;BME280;32463;48.298;11.620;2022-12-24T19:50:37;96533.81;;;6.56;100.00
46724;BME280;32463;48.298;11.620;2022-12-24T19:53:03;96533.94;;;6.55;100.00
46724;BME280;32463;48.298;11.620;2022-12-24T19:55:30;96536.38;;;6.56;100.00
46724;BME280;32463;48.298;11.620;2022-12-24T19:57:56;96528.66;;;6.56;100.00
46724;BME280;32463;48.298;11.620;2022-12-24T20:00:23;96535.69;;;6.54;100.00
46724;BME280;32463;48.298;11.620;2022-12-24T20:02:49;96523.75;;;6.53;100.00
46724;BME280;32463;48.298;11.620;2022-12-24T20:05:16;96515.09;;;6.54;100.00
46724;BME280;32463;48.298;11.620;2022-12-24T20:07:42;96511.88;;;6.62;100.00
46724;BME280;32463;48.298;11.620;2022-12-24T20:10:09;96507.78;;;6.59;100.00
46724;BME280;32463;48.298;11.620;2022-12-24T20:12:35;96512.94;;;6.59;100.00
46724;BME280;32463;48.298;11.620;2022-12-24T20:15:02;96524.44;;;6.55;100.00
46724;BME280;32463;48.298;11.620;2022-12-24T20:17:28;96527.16;;;6.54;100.00
46724;BME280;32463;48.298;11.620;2022-12-24T20:19:55;96525.22;;;6.46;100.00
46724;BME280;32463;48.298;11.620;2022-12-24T20:22:21;96532.25;;;6.44;100.00
46724;BME280;32463;48.298;11.620;2022-12-24T20:24:48;96540.25;;;6.41;100.00
46724;BME280;32463;48.298;11.620;2022-12-24T20:27:14;96539.56;;;6.39;100.00
46724;BME280;32463;48.298;11.620;2022-12-24T20:29:41;96542.38;;;6.36;100.00
46724;BME280;32463;48.298;11.620;2022-12-24T20:32:07;96547.53;;;6.36;100.00
46724;BME280;32463;48.298;11.620;2022-12-24T20:34:33;96558.09;;;6.33;100.00
46724;BME280;32463;48.298;11.620;2022-12-24T20:37:00;96554.81;;;6.31;100.00
46724;BME280;32463;48.298;11.620;2022-12-24T20:39:27;96551.56;;;6.29;100.00
46724;BME280;32463;48.298;11.620;2022-12-24T20:41:53;96550.88;;;6.27;100.00
46724;BME280;32463;48.298;11.620;2022-12-24T20:44:20;96559.16;;;6.30;100.00
46724;BME280;32463;48.298;11.620;2022-12-24T20:46:46;96560.53;;;6.34;100.00
46724;BME280;32463;48.298;11.620;2022-12-24T20:49:13;96552.69;;;6.36;100.00
46724;BME280;32463;48.298;11.620;2022-12-24T20:51:39;96551.06;;;6.35;100.00
46724;BME280;32463;48.298;11.620;2022-12-24T20:54:05;96554.56;;;6.34;100.00
46724;BME280;32463;48.298;11.620;2022-12-24T20:56:32;96554.56;;;6.34;100.00
46724;BME280;32463;48.298;11.620;2022-12-24T20:59:00;96554.56;;;6.34;100.00
46724;BME280;32463;48.298;11.620;2022-12-24T21:01:27;96555.50;;;6.33;100.00
46724;BME280;32463;48.298;11.620;2022-12-24T21:03:55;96556.72;;;6.29;100.00
46724;BME280;32463;48.298;11.620;2022-12-24T21:06:22;96547.47;;;6.26;100.00
46724;BME280;32463;48.298;11.620;2022-12-24T21:08:50;96556.72;;;6.29;100.00
46724;BME280;32463;48.298;11.620;2022-12-24T21:11:17;96560.22;;;6.28;100.00
46724;BME280;32463;48.298;11.620;2022-12-24T21:14:02;96567.00;;;6.29;100.00
46724;BME280;32463;48.298;11.620;2022-12-24T21:16:30;96567.25;;;6.26;100.00
46724;BME280;32463;48.298;11.620;2022-12-24T21:18:57;96569.84;;;6.26;100.00
46724;BME280;32463;48.298;11.620;2022-12-24T21:21:23;96560.72;;;6.22;100.00
46724;BME280;32463;48.298;11.620;2022-12-24T21:23:50;96564.00;;;6.24;100.00
46724;BME280;32463;48.298;11.620;2022-12-24T21:26:17;96566.56;;;6.24;100.00
46724;BME280;32463;48.298;11.620;2022-12-24T21:28:43;96560.03;;;6.20;100.00
46724;BME280;32463;48.298;11.620;2022-12-24T21:31:11;96564.00;;;6.24;100.00
46724;BME280;32463;48.298;11.620;2022-12-24T21:33:38;96572.91;;;6.20;100.00
46724;BME280;32463;48.298;11.620;2022-12-24T21:36:05;96570.56;;;6.17;100.00
46724;BME280;32463;48.298;11.620;2022-12-24T21:38:32;96569.88;;;6.15;100.00
46724;BME280;32463;48.298;11.620;2022-12-24T21:41:13;96568.25;;;6.14;100.00
46724;BME280;32463;48.298;11.620;2022-12-24T21:43:41;96572.59;;;6.13;100.00
46724;BME280;32463;48.298;11.620;2022-12-24T21:46:10;96576.91;;;6.13;100.00
46724;BME280;32463;48.298;11.620;2022-12-24T21:48:38;96569.34;;;6.11;100.00
46724;BME280;32463;48.298;11.620;2022-12-24T21:51:23;96565.25;;;6.08;100.00
46724;BME280;32463;48.298;11.620;2022-12-24T21:53:50;96564.56;;;6.06;100.00
46724;BME280;32463;48.298;11.620;2022-12-24T21:56:34;96573.41;;;6.14;100.00
46724;BME280;32463;48.298;11.620;2022-12-24T21:59:21;96566.06;;;6.09;100.00
46724;BME280;32463;48.298;11.620;2022-12-24T22:01:47;96568.53;;;6.11;100.00
46724;BME280;32463;48.298;11.620;2022-12-24T22:04:13;96567.56;;;6.12;100.00
46724;BME280;32463;48.298;11.620;2022-12-24T22:06:40;96568.94;;;6.16;100.00
46724;BME280;32463;48.298;11.620;2022-12-24T22:09:24;96563.91;;;6.14;100.00
46724;BME280;32463;48.298;11.620;2022-12-24T22:12:08;96561.22;;;6.16;100.00
46724;BME280;32463;48.298;11.620;2022-12-24T22:14:36;96562.34;;;6.23;100.00
46724;BME280;32463;48.298;11.620;2022-12-24T22:17:02;96573.09;;;6.28;100.00
46724;BME280;32463;48.298;11.620;2022-12-24T22:19:29;96576.38;;;6.30;100.00
46724;BME280;32463;48.298;11.620;2022-12-24T22:21:55;96578.00;;;6.31;100.00
46724;BME280;32463;48.298;11.620;2022-12-24T22:24:22;96572.16;;;6.29;100.00
46724;BME280;32463;48.298;11.620;2022-12-24T22:26:50;96576.50;;;6.28;100.00
46724;BME280;32463;48.298;11.620;2022-12-24T22:29:16;96577.44;;;6.27;100.00
46724;BME280;32463;48.298;11.620;2022-12-24T22:31:43;96576.84;;;6.24;100.00
46724;BME280;32463;48.298;11.620;2022-12-24T22:34:10;96579.88;;;6.29;100.00
46724;BME280;32463;48.298;11.620;2022-12-24T22:36:37;96577.56;;;6.26;100.00
46724;BME280;32463;48.298;11.620;2022-12-24T22:39:03;96579.44;;;6.24;100.00
46724;BME280;32463;48.298;11.620;2022-12-24T22:41:30;96582.13;;;6.22;100.00
46724;BME280;32463;48.298;11.620;2022-12-24T22:43:56;96579.94;;;6.18;100.00
46724;BME280;32463;48.298;11.620;2022-12-24T22:46:23;96589.66;;;6.14;100.00
46724;BME280;32463;48.298;11.620;2022-12-24T22:48:49;96585.56;;;6.12;100.00
46724;BME280;32463;48.298;11.620;2022-12-24T22:51:18;96583.41;;;6.07;100.00
46724;BME280;32463;48.298;11.620;2022-12-24T22:53:45;96589.38;;;6.07;100.00
46724;BME280;32463;48.298;11.620;2022-12-24T22:56:20;96587.47;;;6.10;100.00
46724;BME280;32463;48.298;11.620;2022-12-24T22:58:54;96596.84;;;6.11;100.00
46724;BME280;32463;48.298;11.620;2022-12-24T23:01:33;96593.56;;;6.08;100.00
46724;BME280;32463;48.298;11.620;2022-12-24T23:04:01;96594.50;;;6.07;100.00
46724;BME280;32463;48.298;11.620;2022-12-24T23:06:28;96599.91;;;6.04;100.00
46724;BME280;32463;48.298;11.620;2022-12-24T23:08:54;96592.44;;;6.01;100.00
46724;BME280;32463;48.298;11.620;2022-12-24T23:11:21;96598.28;;;6.03;100.00
46724;BME280;32463;48.298;11.620;2022-12-24T23:13:47;96602.03;;;5.99;100.00
46724;BME280;32463;48.298;11.620;2022-12-24T23:16:32;96622.38;;;6.02;100.00
46724;BME280;32463;48.298;11.620;2022-12-24T23:19:00;96624.25;;;6.00;100.00
46724;BME280;32463;48.298;11.620;2022-12-24T23:21:27;96620.25;;;6.07;100.00
46724;BME280;32463;48.298;11.620;2022-12-24T23:23:59;96619.31;;;6.08;100.00
46724;BME280;32463;48.298;11.620;2022-12-24T23:26:27;96627.72;;;6.11;100.00
46724;BME280;32463;48.298;11.620;2022-12-24T23:28:54;96627.56;;;6.12;100.00
46724;BME280;32463;48.298;11.620;2022-12-24T23:31:21;96620.94;;;6.10;100.00
46724;BME280;32463;48.298;11.620;2022-12-24T23:33:48;96609.81;;;6.09;100.00
46724;BME280;32463;48.298;11.620;2022-12-24T23:36:15;96597.78;;;6.10;100.00
46724;BME280;32463;48.298;11.620;2022-12-24T23:38:41;96595.88;;;6.12;100.00
46724;BME280;32463;48.298;11.620;2022-12-24T23:41:08;96586.53;;;6.11;100.00
46724;BME280;32463;48.298;11.620;2022-12-24T23:43:35;96588.84;;;6.14;100.00
46724;BME280;32463;48.298;11.620;2022-12-24T23:46:03;96575.56;;;6.08;100.00
46724;BME280;32463;48.298;11.620;2022-12-24T23:48:29;96557.34;;;6.00;100.00
46724;BME280;32463;48.298;11.620;2022-12-24T23:51:06;96561.53;;;6.01;100.00
46724;BME280;32463;48.298;11.620;2022-12-24T23:53:33;96559.03;;;5.90;100.00
46724;BME280;32463;48.298;11.620;2022-12-24T23:56:00;96553.78;;;5.81;100.00
46724;BME280;32463;48.298;11.620;2022-12-24T23:58:30;96556.03;;;5.74;100.00
